Time Latitude Longitude Accuracy (66% radius in meters) Altitude (meters) Speed (km/hour) Bearing (degrees) Battery (%) GPS flag
13:37:52 56.387668 43.737148 6 90.5 0 0 9 1 delete
13:37:40 56.387668 43.737148 8 90.5 0 0 9 1 delete
13:37:28 56.387668 43.737149 8 90.400001525879 0 0 9 1 delete
13:37:17 56.387668 43.737149 14 90.300003051758 0 0 9 1 delete
13:37:06 56.387668 43.737150 11 90 0 0 9 1 delete
13:36:55 56.387668 43.737151 10 89.900001525879 0 0 9 1 delete
14:36:45 56.387656 43.737105 24 94.199996948242 0 0 9 0 delete
14:36:33 56.387656 43.737105 24 94.199996948242 0 0 9 0 delete
13:36:13 56.387668 43.737151 12 89.800003051758 0 0 9 1 delete
13:36:10 56.387668 43.737151 9 89.800003051758 0 0 9 1 delete
13:35:58 56.387668 43.737151 5 89.699996948242 0 0 9 1 delete
13:35:47 56.387668 43.737152 6 89.599998474121 0 0 9 1 delete
13:35:35 56.387668 43.737152 13 89.599998474121 0 0 9 1 delete
13:35:24 56.387668 43.737152 14 89.400001525879 0 0 9 1 delete
13:35:12 56.387668 43.737153 13 89.300003051758 0 0 9 1 delete
13:35:01 56.387668 43.737153 18 89.300003051758 0 0 9 1 delete
13:34:49 56.387668 43.737153 19 89.199996948242 0 0 9 1 delete
13:34:38 56.387668 43.737154 9 89.099998474121 0 0 9 1 delete
13:34:26 56.387668 43.737154 5 88.900001525879 0 0 9 1 delete
13:34:14 56.387668 43.737154 10 88.900001525879 0 0 9 1 delete
13:34:03 56.387667 43.737155 7 88.800003051758 0 0 9 1 delete
13:33:52 56.387667 43.737155 6 88.699996948242 0 0 9 1 delete
13:33:40 56.387667 43.737156 9 88.5 0 0 9 1 delete
13:33:29 56.387667 43.737157 9 88.199996948242 0 0 9 1 delete
13:33:17 56.387667 43.737157 14 88.099998474121 0 0 9 1 delete
13:33:06 56.387667 43.737157 10 88.099998474121 0 0 9 1 delete
13:32:54 56.387667 43.737158 6 88 0 0 9 1 delete
13:32:43 56.387667 43.737159 7 87.800003051758 0 0 9 1 delete
13:32:31 56.387667 43.737163 9 87 0 0 9 1 delete
13:32:20 56.387667 43.737163 7 86.900001525879 0 0 9 1 delete
13:32:09 56.387667 43.737163 8 86.900001525879 0 0 9 1 delete
13:31:58 56.387667 43.737164 7 86.699996948242 0 0 9 1 delete
13:31:47 56.387669 43.737155 20 87.400001525879 0 0 9 1 delete
14:31:37 56.387656 43.737105 24 94.199996948242 0 0 9 0 delete
14:31:26 56.387656 43.737105 24 94.199996948242 0 0 9 0 delete
13:31:12 56.387669 43.737145 5 87.800003051758 0 0 9 1 delete
13:31:02 56.387669 43.737145 5 87.800003051758 0 0 9 1 delete
13:30:50 56.387669 43.737146 5 87.599998474121 0 0 9 1 delete
13:30:39 56.387669 43.737146 5 87.5 0 0 9 1 delete
13:30:27 56.387669 43.737146 5 87.400001525879 0 0 9 1 delete
13:30:16 56.387669 43.737147 5 87.300003051758 0 0 9 1 delete
13:30:04 56.387669 43.737147 5 87.199996948242 0 0 9 1 delete
13:29:53 56.387669 43.737148 6 87 0 0 9 1 delete
13:29:42 56.387669 43.737148 6 86.900001525879 0 0 9 1 delete
13:29:30 56.387669 43.737148 5 86.900001525879 0 0 9 1 delete
13:29:19 56.387669 43.737149 5 86.800003051758 0 0 12 1 delete
13:29:07 56.387668 43.737149 5 86.699996948242 0 0 12 1 delete
13:28:56 56.387668 43.737150 5 86.5 0 0 12 1 delete
13:28:44 56.387668 43.737150 5 86.5 0 0 12 1 delete
13:28:33 56.387668 43.737151 5 86.300003051758 0 0 12 1 delete